createdAt,value
2022-12-20T00:03:46.359Z,13.27
2022-12-20T00:08:55.705Z,14.55
2022-12-20T00:14:00.579Z,15.00
2022-12-20T00:19:06.959Z,13.65
2022-12-20T00:24:11.847Z,14.75
2022-12-20T00:29:16.651Z,13.98
2022-12-20T00:34:21.026Z,15.70
2022-12-20T00:39:24.444Z,13.85
2022-12-20T00:44:30.177Z,13.95
2022-12-20T00:49:34.102Z,14.57
2022-12-20T00:54:37.586Z,14.10
2022-12-20T00:59:42.397Z,13.88
2022-12-20T01:04:46.117Z,15.50
2022-12-20T01:09:49.543Z,15.77
2022-12-20T01:14:54.570Z,14.60
2022-12-20T01:19:58.261Z,16.67
2022-12-20T01:25:01.724Z,15.20
2022-12-20T01:30:07.445Z,16.25
2022-12-20T01:35:11.107Z,14.02
2022-12-20T01:40:15.007Z,14.93
2022-12-20T01:45:28.383Z,13.45
2022-12-20T01:55:35.774Z,15.27
2022-12-20T02:00:40.642Z,15.20
2022-12-20T02:05:47.002Z,15.68
2022-12-20T02:11:06.446Z,13.88
2022-12-20T02:16:16.053Z,15.27
2022-12-20T02:21:27.929Z,14.75
2022-12-20T02:26:59.286Z,16.25
2022-12-20T02:32:09.906Z,15.27
2022-12-20T02:37:14.811Z,15.23
2022-12-20T02:42:22.293Z,14.38
2022-12-20T02:47:32.855Z,14.55
2022-12-20T02:52:37.457Z,14.38
2022-12-20T02:57:47.771Z,14.90
2022-12-20T03:03:11.305Z,15.27
2022-12-20T03:08:14.829Z,13.60
2022-12-20T03:13:18.626Z,14.45
2022-12-20T03:18:23.486Z,16.23
2022-12-20T03:23:26.869Z,15.05
2022-12-20T03:28:30.487Z,14.63
2022-12-20T03:33:35.334Z,13.95
2022-12-20T03:38:38.817Z,14.68
2022-12-20T03:43:42.260Z,12.07
2022-12-20T03:48:47.341Z,14.85
2022-12-20T03:53:50.905Z,12.93
2022-12-20T03:58:54.328Z,12.55
2022-12-20T04:03:59.245Z,14.20
2022-12-20T04:09:02.773Z,12.93
2022-12-20T04:14:06.414Z,14.23
2022-12-20T04:19:12.063Z,13.52
2022-12-20T04:24:15.514Z,14.15
2022-12-20T04:29:19.421Z,14.98
2022-12-20T04:34:24.216Z,14.48
2022-12-20T04:39:27.711Z,15.35
2022-12-20T04:44:31.107Z,14.93
2022-12-20T04:49:37.459Z,17.48
2022-12-20T04:54:41.133Z,15.57
2022-12-20T04:59:44.624Z,16.35
2022-12-20T05:04:49.401Z,15.48
2022-12-20T05:09:52.844Z,16.42
2022-12-20T05:14:56.555Z,16.77
2022-12-20T05:20:01.460Z,16.23
2022-12-20T05:25:23.171Z,16.70
2022-12-20T05:30:27.181Z,15.32
2022-12-20T05:35:31.975Z,18.50
2022-12-20T05:40:35.595Z,18.05
2022-12-20T05:45:39.311Z,15.27
2022-12-20T05:50:45.718Z,16.95
2022-12-20T05:55:51.164Z,17.70
2022-12-20T06:00:54.643Z,16.52
2022-12-20T06:05:59.493Z,17.48
2022-12-20T06:11:05.022Z,18.20
2022-12-20T06:16:08.741Z,17.52
2022-12-20T06:21:13.512Z,20.35
2022-12-20T06:26:16.942Z,18.25
2022-12-20T06:31:28.652Z,17.55
2022-12-20T06:36:44.627Z,17.58
2022-12-20T06:41:51.813Z,18.25
2022-12-20T06:47:04.391Z,17.38
2022-12-20T06:52:11.250Z,18.08
2022-12-20T06:57:14.907Z,17.75
2022-12-20T07:02:24.090Z,16.35
2022-12-20T07:07:40.669Z,17.95
2022-12-20T07:12:51.027Z,18.17
2022-12-20T07:17:56.787Z,18.48
2022-12-20T07:23:01.698Z,16.27
2022-12-20T07:28:05.558Z,17.35
2022-12-20T07:33:08.974Z,16.48
2022-12-20T07:38:14.323Z,16.75
2022-12-20T07:43:17.833Z,17.23
2022-12-20T07:48:21.945Z,18.95
2022-12-20T07:53:29.920Z,18.48
2022-12-20T07:58:34.640Z,17.35
2022-12-20T08:03:42.728Z,18.63
2022-12-20T08:08:50.582Z,19.50
2022-12-20T08:13:57.750Z,17.45
2022-12-20T08:19:02.108Z,17.75
2022-12-20T08:24:08.307Z,17.30
2022-12-20T08:29:12.416Z,17.90
2022-12-20T08:34:15.873Z,18.88
2022-12-20T08:39:20.624Z,19.27
2022-12-20T08:44:24.612Z,18.58
2022-12-20T08:49:28.307Z,19.52
2022-12-20T08:54:33.738Z,17.92
2022-12-20T08:59:37.210Z,18.05
2022-12-20T09:04:40.872Z,16.83
2022-12-20T09:09:47.384Z,19.02
2022-12-20T09:14:50.831Z,18.30
2022-12-20T09:19:55.240Z,17.92
2022-12-20T09:25:00.049Z,18.95
2022-12-20T09:30:03.525Z,17.92
2022-12-20T09:35:07.725Z,19.17
2022-12-20T09:40:19.881Z,19.45
2022-12-20T09:45:28.960Z,17.80
2022-12-20T09:50:44.800Z,15.60
2022-12-20T09:55:56.121Z,16.58
2022-12-20T10:00:59.999Z,17.85
2022-12-20T10:06:14.902Z,17.63
2022-12-20T10:11:43.465Z,16.80
2022-12-20T10:16:54.506Z,18.77
2022-12-20T10:22:06.517Z,17.80
2022-12-20T10:27:16.998Z,17.58
2022-12-20T10:32:23.432Z,18.58
2022-12-20T10:37:27.358Z,20.23
2022-12-20T10:42:39.497Z,17.85
2022-12-20T10:47:46.138Z,19.23
2022-12-20T10:53:20.908Z,18.83
2022-12-20T10:58:35.278Z,17.90
2022-12-20T11:03:51.816Z,18.63
2022-12-20T11:09:00.710Z,19.60
2022-12-20T11:14:15.937Z,18.73
2022-12-20T11:19:32.542Z,18.20
2022-12-20T11:24:43.205Z,18.77
2022-12-20T11:30:11.168Z,18.27
2022-12-20T11:35:19.525Z,21.55
2022-12-20T11:40:30.337Z,19.10
2022-12-20T11:45:46.768Z,18.50
2022-12-20T11:51:02.790Z,21.55
2022-12-20T11:56:13.505Z,18.73
2022-12-20T12:01:22.454Z,18.45
2022-12-20T12:06:30.037Z,19.38
2022-12-20T12:17:09.689Z,18.67
2022-12-20T12:22:21.540Z,19.20
2022-12-20T12:27:30.529Z,18.33
2022-12-20T12:32:44.209Z,18.60
2022-12-20T12:38:18.635Z,17.40
2022-12-20T12:43:45.651Z,19.38
2022-12-20T12:48:57.581Z,18.30
2022-12-20T12:54:17.215Z,18.60
2022-12-20T12:59:37.667Z,19.63
2022-12-20T13:04:57.640Z,19.95
2022-12-20T13:10:02.347Z,21.27
2022-12-20T13:15:47.742Z,25.90
2022-12-20T13:21:24.462Z,23.73
2022-12-20T13:26:53.166Z,20.83
2022-12-20T13:31:56.706Z,23.65
2022-12-20T13:37:00.753Z,20.25
2022-12-20T13:42:18.935Z,19.20
2022-12-20T13:47:40.276Z,20.80
2022-12-20T13:52:48.348Z,18.38
2022-12-20T13:57:54.110Z,20.30
2022-12-20T14:03:02.263Z,19.98
2022-12-20T14:08:08.054Z,18.90
2022-12-20T14:13:24.742Z,18.30
2022-12-20T14:18:28.639Z,22.08
2022-12-20T14:23:38.138Z,22.20
2022-12-20T14:28:46.570Z,20.05
2022-12-20T14:33:50.526Z,21.45
2022-12-20T14:38:54.619Z,19.63
2022-12-20T14:44:02.536Z,22.10
2022-12-20T14:49:16.320Z,20.85
2022-12-20T14:54:56.873Z,18.23
2022-12-20T15:00:02.818Z,17.90
2022-12-20T15:05:31.643Z,18.73
2022-12-20T15:10:35.389Z,21.35
2022-12-20T15:15:40.427Z,21.95
2022-12-20T15:20:45.685Z,21.38
2022-12-20T15:25:49.767Z,20.00
2022-12-20T15:30:55.399Z,19.25
2022-12-20T15:35:58.885Z,18.73
2022-12-20T15:41:06.030Z,18.58
2022-12-20T15:46:13.267Z,19.60
2022-12-20T15:51:19.274Z,17.13
2022-12-20T15:56:24.588Z,18.42
2022-12-20T16:01:40.467Z,19.17
2022-12-20T16:06:46.091Z,18.70
2022-12-20T16:11:49.607Z,17.75
2022-12-20T16:16:54.350Z,19.35
2022-12-20T16:21:58.209Z,19.60
2022-12-20T16:27:01.696Z,19.10
2022-12-20T16:32:17.054Z,19.73
2022-12-20T16:37:20.724Z,20.30
2022-12-20T16:42:28.126Z,18.73
2022-12-20T16:47:33.792Z,21.80
2022-12-20T16:52:38.301Z,19.73
2022-12-20T16:57:42.160Z,17.63
2022-12-20T17:02:47.748Z,18.98
2022-12-20T17:07:51.908Z,19.90
2022-12-20T17:12:56.659Z,22.15
2022-12-20T17:18:01.452Z,19.40
2022-12-20T17:23:05.118Z,19.25
2022-12-20T17:28:08.861Z,19.38
2022-12-20T17:33:16.437Z,19.83
2022-12-20T17:38:19.868Z,19.05
2022-12-20T17:43:23.338Z,17.77
2022-12-20T17:48:33.210Z,18.70
2022-12-20T17:53:38.918Z,20.30
2022-12-20T17:58:42.975Z,20.17
2022-12-20T18:04:05.225Z,20.63
2022-12-20T18:09:15.038Z,22.38
2022-12-20T18:14:18.715Z,20.55
2022-12-20T18:19:23.568Z,22.35
2022-12-20T18:24:27.509Z,22.67
2022-12-20T18:29:31.346Z,23.98
2022-12-20T18:34:36.228Z,23.15
2022-12-20T18:39:39.722Z,25.70
2022-12-20T18:44:43.473Z,25.80
2022-12-20T18:49:48.238Z,23.02
2022-12-20T18:54:51.869Z,23.48
2022-12-20T18:59:55.326Z,19.15
2022-12-20T19:05:00.120Z,22.15
2022-12-20T19:10:04.076Z,20.20
2022-12-20T19:15:08.375Z,25.10
2022-12-20T19:20:13.607Z,21.73
2022-12-20T19:25:17.519Z,21.85
2022-12-20T19:30:21.352Z,20.08
2022-12-20T19:35:54.332Z,19.85
2022-12-20T19:40:54.243Z,20.02
2022-12-20T19:45:58.226Z,18.38
2022-12-20T19:51:10.011Z,18.98
2022-12-20T19:56:15.158Z,20.40
2022-12-20T20:01:19.977Z,17.98
2022-12-20T20:06:25.905Z,20.08
2022-12-20T20:11:30.307Z,18.90
2022-12-20T20:16:33.796Z,16.38
2022-12-20T20:21:39.340Z,21.73
2022-12-20T20:26:42.985Z,18.48
2022-12-20T20:31:46.481Z,20.23
2022-12-20T20:36:52.413Z,21.13
2022-12-20T20:41:55.855Z,18.25
2022-12-20T20:46:59.600Z,19.27
2022-12-20T20:52:04.545Z,19.25
2022-12-20T20:57:07.903Z,18.73
2022-12-20T21:02:14.212Z,19.65
2022-12-20T21:07:19.150Z,19.55
2022-12-20T21:12:23.365Z,22.23
2022-12-20T21:17:27.062Z,19.08
2022-12-20T21:22:32.197Z,22.23
2022-12-20T21:27:35.663Z,20.98
2022-12-20T21:32:39.497Z,18.95
2022-12-20T21:37:44.628Z,17.40
2022-12-20T21:42:48.076Z,19.08
2022-12-20T21:47:51.521Z,17.42
2022-12-20T21:52:56.398Z,17.17
2022-12-20T21:58:00.412Z,18.10
2022-12-20T22:03:04.000Z,16.45
2022-12-20T22:08:08.894Z,17.42
2022-12-20T22:13:13.375Z,18.23
2022-12-20T22:18:17.087Z,17.70
2022-12-20T22:23:21.875Z,18.83
2022-12-20T22:28:25.276Z,17.88
2022-12-20T22:33:28.742Z,16.92
2022-12-20T22:38:33.884Z,17.08
2022-12-20T22:43:37.935Z,17.02
2022-12-20T22:48:41.942Z,16.08
2022-12-20T22:53:47.929Z,17.15
2022-12-20T22:58:51.530Z,16.75
2022-12-20T23:03:55.068Z,15.63
2022-12-20T23:09:00.375Z,16.70
2022-12-20T23:14:23.052Z,16.27
2022-12-20T23:19:26.891Z,16.65
2022-12-20T23:24:31.702Z,19.85
2022-12-20T23:29:35.605Z,19.10
2022-12-20T23:34:39.034Z,18.65
2022-12-20T23:39:43.823Z,16.55
2022-12-20T23:44:47.617Z,15.82
2022-12-20T23:49:51.089Z,17.35
2022-12-20T23:54:57.135Z,15.70
